Haifa, Israel

2:42 PM IDT on July 28, 2016 (GMT +0300)
Haifa | | Change Station

Elev 676 ft 32.81 °N, 34.99 °E | Updated 9 minutes ago

Scattered Clouds
Scattered Clouds
84.5 °F
Feels Like 92 °F
N
5.0
Wind Variable Wind from NNW
Gusts 16.0 mph

Today
High -- | Low -- °F
--% Chance of Precip.
Yesterday
High -- | Low -- °F
Precip. -- in
Pressure 29.74 in
Visibility 6.2 miles
Clouds Scattered Clouds 3000 ft
Heat Index 92 °F
Dew Point 74 °F
Humidity 71%
Rainfall 0.00 in
Snow Depth Not available.
5:51 AM 7:41 PM
Waning Crescent, 33% visible
METAR LLHA 281050Z 31011KT 9999 SCT030 30/21 Q1007
Pressure 29.74 in
Visibility 6.2 miles
Clouds Scattered Clouds 3000 ft
Heat Index 92 °F
Dew Point 74 °F
Humidity 71%
Rainfall 0.00 in
Snow Depth Not available.
5:51 AM 7:41 PM
Waning Crescent, 33% visible
METAR LLHA 281050Z 31011KT 9999 SCT030 30/21 Q1007

10-Day Weather Forecast

No radar image for this location.
×

Almanac

Astronomy

Jul. 28, 2016 Rise Set
Actual Time
Civil Twilight
Nautical Twilight
Astronomical Twilight
Moon
Length of Visible Light
Length of Day
Tomorrow will be .
, % of the Moon is Illuminated

Today's Extremes

Country Highs Country Lows

Community

WunderPhotos

Upload Photos

1,928,096 photos uploaded!

WunderBlog® & News

Nearby

Air Quality

  Air Quality AQ Index Pollutant
Not available.

Snow Depth

Station Depth Elevation

Earthquake Activity

City Distance Mag. Time & Date
Minimum magnitude displayed is 2.5.

Coastal Water Temperatures

Place Temperature

Stations

Nearby Weather Stations

Station Location Temp. Windchill Dew Point Humidity Wind Precip. Elev Updated Type